createdAt,value
2022-11-10T00:01:07.541Z,10.10
2022-11-10T00:03:36.132Z,10.09
2022-11-10T00:06:04.851Z,10.10
2022-11-10T00:08:32.049Z,10.09
2022-11-10T00:10:59.097Z,10.10
2022-11-10T00:13:32.461Z,10.10
2022-11-10T00:16:20.214Z,10.11
2022-11-10T00:18:47.096Z,10.10
2022-11-10T00:21:15.721Z,10.10
2022-11-10T00:23:42.588Z,10.10
2022-11-10T00:26:15.316Z,10.10
2022-11-10T00:28:42.478Z,10.10
2022-11-10T00:31:10.044Z,10.09
2022-11-10T00:33:42.004Z,10.09
2022-11-10T00:36:09.337Z,10.11
2022-11-10T00:38:36.394Z,10.10
2022-11-10T00:41:04.044Z,10.10
2022-11-10T00:43:31.069Z,10.10
2022-11-10T00:45:58.051Z,10.09
2022-11-10T00:48:24.963Z,10.09
2022-11-10T00:50:52.042Z,10.09
2022-11-10T00:53:19.087Z,10.07
2022-11-10T00:55:46.237Z,10.08
2022-11-10T00:58:13.028Z,10.08
2022-11-10T01:00:40.171Z,10.08
2022-11-10T01:03:07.158Z,10.09
2022-11-10T01:05:38.037Z,10.06
2022-11-10T01:08:05.239Z,10.06
2022-11-10T01:10:32.242Z,10.07
2022-11-10T01:12:59.191Z,10.05
2022-11-10T01:15:27.962Z,10.02
2022-11-10T01:17:56.258Z,10.03
2022-11-10T01:20:24.396Z,10.03
2022-11-10T01:22:51.284Z,10.03
2022-11-10T01:25:18.212Z,10.02
2022-11-10T01:27:45.229Z,10.00
2022-11-10T01:30:12.483Z,9.99
2022-11-10T01:32:39.290Z,9.95
2022-11-10T01:35:06.565Z,9.95
2022-11-10T01:37:33.366Z,9.95
2022-11-10T01:40:00.392Z,9.95
2022-11-10T01:42:41.051Z,9.95
2022-11-10T01:45:23.085Z,9.94
2022-11-10T01:48:03.749Z,9.92
2022-11-10T01:50:34.805Z,9.90
2022-11-10T01:53:05.321Z,9.88
2022-11-10T01:55:34.490Z,9.88
2022-11-10T01:58:01.626Z,9.85
2022-11-10T02:00:28.682Z,9.82
2022-11-10T02:03:03.741Z,9.82
2022-11-10T02:05:31.479Z,9.77
2022-11-10T02:07:58.371Z,9.79
2022-11-10T02:10:25.108Z,9.78
2022-11-10T02:12:52.195Z,9.76
2022-11-10T02:15:19.253Z,9.76
2022-11-10T02:17:47.978Z,9.75
2022-11-10T02:20:18.059Z,9.74
2022-11-10T02:22:45.196Z,9.73
2022-11-10T02:25:19.662Z,9.69
2022-11-10T02:27:46.565Z,9.73
2022-11-10T02:30:14.290Z,9.71
2022-11-10T02:32:42.723Z,9.70
2022-11-10T02:35:09.875Z,9.68
2022-11-10T02:37:36.806Z,9.68
2022-11-10T02:40:04.733Z,9.67
2022-11-10T02:42:31.578Z,9.67
2022-11-10T02:44:59.237Z,9.68
2022-11-10T02:47:26.061Z,9.66
2022-11-10T02:49:52.875Z,9.66
2022-11-10T02:52:19.619Z,9.65
2022-11-10T02:54:46.454Z,9.66
2022-11-10T02:57:13.310Z,9.63
2022-11-10T02:59:40.128Z,9.63
2022-11-10T03:02:06.887Z,9.60
2022-11-10T03:04:33.717Z,9.62
2022-11-10T03:07:00.715Z,9.61
2022-11-10T03:09:27.616Z,9.61
2022-11-10T03:11:54.406Z,9.59
2022-11-10T03:14:21.221Z,9.57
2022-11-10T03:16:48.026Z,9.58
2022-11-10T03:19:14.813Z,9.57
2022-11-10T03:21:41.616Z,9.53
2022-11-10T03:24:08.497Z,9.52
2022-11-10T03:26:35.331Z,9.49
2022-11-10T03:29:02.159Z,9.48
2022-11-10T03:31:28.966Z,9.48
2022-11-10T03:33:55.785Z,9.45
2022-11-10T03:36:22.611Z,9.45
2022-11-10T03:38:49.411Z,9.43
2022-11-10T03:41:20.440Z,9.40
2022-11-10T03:43:48.738Z,9.39
2022-11-10T03:46:16.231Z,9.40
2022-11-10T03:48:44.567Z,9.40
2022-11-10T03:51:14.412Z,9.39
2022-11-10T03:53:41.219Z,9.41
2022-11-10T03:56:08.266Z,9.40
2022-11-10T03:58:35.097Z,9.40
2022-11-10T04:01:01.852Z,9.37
2022-11-10T04:03:28.670Z,9.37
2022-11-10T04:06:14.236Z,9.38
2022-11-10T04:09:00.040Z,9.37
2022-11-10T04:11:47.262Z,9.35
2022-11-10T04:14:32.960Z,9.35
2022-11-10T04:17:00.293Z,9.33
2022-11-10T04:19:27.251Z,9.34
2022-11-10T04:21:54.399Z,9.32
2022-11-10T04:24:21.694Z,9.31
2022-11-10T04:26:49.498Z,9.31
2022-11-10T04:29:18.556Z,9.32
2022-11-10T04:31:46.096Z,9.30
2022-11-10T04:34:15.007Z,9.29
2022-11-10T04:36:44.326Z,9.29
2022-11-10T04:39:11.328Z,9.29
2022-11-10T04:41:38.499Z,9.29
2022-11-10T04:44:05.853Z,9.29
2022-11-10T04:46:35.481Z,9.28
2022-11-10T04:49:04.335Z,9.28
2022-11-10T04:51:36.984Z,9.26
2022-11-10T04:54:05.436Z,9.25
2022-11-10T04:56:32.397Z,9.26
2022-11-10T04:58:59.229Z,9.23
2022-11-10T05:01:27.691Z,9.23
2022-11-10T05:03:55.126Z,9.25
2022-11-10T05:06:22.374Z,9.23
2022-11-10T05:08:49.288Z,9.27
2022-11-10T05:11:17.143Z,9.28
2022-11-10T05:13:44.978Z,9.26
2022-11-10T05:16:12.445Z,9.27
2022-11-10T05:18:39.789Z,9.27
2022-11-10T05:21:07.023Z,9.28
2022-11-10T05:23:39.648Z,9.30
2022-11-10T05:26:17.713Z,9.30
2022-11-10T05:28:45.698Z,9.32
2022-11-10T05:31:13.543Z,9.30
2022-11-10T05:33:40.525Z,9.26
2022-11-10T05:36:08.085Z,9.28
2022-11-10T05:38:40.311Z,9.27
2022-11-10T05:41:10.097Z,9.27
2022-11-10T05:43:36.963Z,9.27
2022-11-10T05:46:04.021Z,9.28
2022-11-10T05:48:30.846Z,9.28
2022-11-10T05:50:57.618Z,9.28
2022-11-10T05:53:24.741Z,9.30
2022-11-10T05:55:51.859Z,9.32
2022-11-10T05:58:18.702Z,9.31
2022-11-10T06:00:45.562Z,9.33
2022-11-10T06:03:18.000Z,9.34
2022-11-10T06:05:45.496Z,9.36
2022-11-10T06:08:12.694Z,9.35
2022-11-10T06:10:40.636Z,9.37
2022-11-10T06:13:07.678Z,9.39
2022-11-10T06:15:34.703Z,9.41
2022-11-10T06:18:01.629Z,9.41
2022-11-10T06:20:28.728Z,9.40
2022-11-10T06:23:04.129Z,9.40
2022-11-10T06:25:33.175Z,9.42
2022-11-10T06:28:00.291Z,9.43
2022-11-10T06:30:28.206Z,9.43
2022-11-10T06:32:55.199Z,9.43
2022-11-10T06:35:23.339Z,9.42
2022-11-10T06:40:46.040Z,9.44
2022-11-10T06:43:12.833Z,9.37
2022-11-10T06:45:39.654Z,9.35
2022-11-10T06:48:14.208Z,9.43
2022-11-10T06:50:41.115Z,9.45
2022-11-10T06:53:07.916Z,9.44
2022-11-10T06:55:34.737Z,9.45
2022-11-10T06:58:01.564Z,9.45
2022-11-10T07:00:29.636Z,9.46
2022-11-10T07:03:05.178Z,9.47
2022-11-10T07:05:34.630Z,9.48
2022-11-10T07:08:16.501Z,9.49
2022-11-10T07:10:45.142Z,9.50
2022-11-10T07:13:12.194Z,9.52
2022-11-10T07:15:39.038Z,9.51
2022-11-10T07:18:06.073Z,9.53
2022-11-10T07:20:32.970Z,9.57
2022-11-10T07:23:07.700Z,9.58
2022-11-10T07:25:36.677Z,9.60
2022-11-10T07:28:10.468Z,9.61
2022-11-10T07:30:37.335Z,9.65
2022-11-10T07:33:07.031Z,9.65
2022-11-10T07:35:34.489Z,9.69
2022-11-10T07:38:03.775Z,9.72
2022-11-10T07:40:30.813Z,9.73
2022-11-10T07:42:57.653Z,9.74
2022-11-10T07:45:24.682Z,9.76
2022-11-10T07:47:51.556Z,9.79
2022-11-10T07:50:18.944Z,9.82
2022-11-10T07:52:45.797Z,9.84
2022-11-10T07:55:12.593Z,9.87
2022-11-10T07:57:39.381Z,9.89
2022-11-10T08:00:07.453Z,9.92
2022-11-10T08:02:34.324Z,9.94
2022-11-10T08:05:01.099Z,9.97
2022-11-10T08:07:28.013Z,10.01
2022-11-10T08:09:54.883Z,10.03
2022-11-10T08:12:22.143Z,10.05
2022-11-10T08:14:49.043Z,10.05
2022-11-10T08:17:15.782Z,10.10
2022-11-10T08:19:42.579Z,10.13
2022-11-10T08:22:09.358Z,10.15
2022-11-10T08:24:36.260Z,10.17
2022-11-10T08:27:03.030Z,10.19
2022-11-10T08:29:29.823Z,10.21
2022-11-10T08:31:56.608Z,10.22
2022-11-10T08:34:23.415Z,10.24
2022-11-10T08:36:53.501Z,10.26
2022-11-10T08:39:38.247Z,10.28
2022-11-10T08:42:06.490Z,10.29
2022-11-10T08:44:33.366Z,10.30
2022-11-10T08:47:00.165Z,10.31
2022-11-10T08:49:26.962Z,10.31
2022-11-10T08:51:53.757Z,10.32
2022-11-10T08:54:20.526Z,10.34
2022-11-10T08:56:47.360Z,10.36
2022-11-10T08:59:14.151Z,10.37
2022-11-10T09:01:40.939Z,10.38
2022-11-10T09:04:07.712Z,10.40
2022-11-10T09:06:34.792Z,10.40
2022-11-10T09:09:01.692Z,10.43
2022-11-10T09:11:28.510Z,10.44
2022-11-10T09:13:55.292Z,10.46
2022-11-10T09:16:22.050Z,10.46
2022-11-10T09:18:48.942Z,10.48
2022-11-10T09:21:15.746Z,10.48
2022-11-10T09:23:42.551Z,10.48
2022-11-10T09:26:09.376Z,10.50
2022-11-10T09:28:36.236Z,10.53
2022-11-10T09:31:03.075Z,10.56
2022-11-10T09:33:29.870Z,10.56
2022-11-10T09:36:02.120Z,10.60
2022-11-10T09:38:29.028Z,10.63
2022-11-10T09:41:09.451Z,10.65
2022-11-10T09:43:57.576Z,10.67
2022-11-10T09:46:28.179Z,10.67
2022-11-10T09:49:05.061Z,10.69
2022-11-10T09:51:40.786Z,10.70
2022-11-10T09:54:27.679Z,10.72
2022-11-10T09:57:00.440Z,10.74
2022-11-10T09:59:32.971Z,10.75
2022-11-10T10:02:03.148Z,10.77
2022-11-10T10:05:19.602Z,10.81
2022-11-10T10:08:07.197Z,10.83
2022-11-10T10:10:40.112Z,10.87
2022-11-10T10:13:39.308Z,10.90
2022-11-10T10:16:24.841Z,10.92
2022-11-10T10:19:16.124Z,10.95
2022-11-10T10:22:04.987Z,10.99
2022-11-10T10:24:33.525Z,11.02
2022-11-10T10:27:07.057Z,11.04
2022-11-10T10:29:45.254Z,11.07
2022-11-10T10:32:14.272Z,11.12
2022-11-10T10:34:42.100Z,11.15
2022-11-10T10:37:27.469Z,11.16
2022-11-10T10:39:55.746Z,11.20
2022-11-10T10:42:31.211Z,11.23
2022-11-10T10:45:14.422Z,11.26
2022-11-10T10:47:41.632Z,11.29
2022-11-10T10:50:23.944Z,11.31
2022-11-10T10:53:17.156Z,11.33
2022-11-10T10:56:07.112Z,11.36
2022-11-10T10:58:48.143Z,11.40
2022-11-10T11:01:21.425Z,11.45
2022-11-10T11:03:50.787Z,11.48
2022-11-10T11:06:17.482Z,11.50
2022-11-10T11:09:08.281Z,11.54
2022-11-10T11:11:38.579Z,11.57
2022-11-10T11:14:14.437Z,11.58
2022-11-10T11:16:56.818Z,11.60
2022-11-10T11:19:27.383Z,11.62
2022-11-10T11:21:59.976Z,11.64
2022-11-10T11:24:41.233Z,11.67
2022-11-10T11:27:21.439Z,11.69
2022-11-10T11:30:10.238Z,11.72
2022-11-10T11:32:46.013Z,11.72
2022-11-10T11:36:07.106Z,11.74
2022-11-10T11:38:45.939Z,11.77
2022-11-10T11:41:30.560Z,11.78
2022-11-10T11:44:15.726Z,11.79
2022-11-10T11:46:49.295Z,11.80
2022-11-10T11:49:42.271Z,11.82
2022-11-10T11:52:23.631Z,11.82
2022-11-10T11:55:37.958Z,11.84
2022-11-10T11:58:28.911Z,11.84
2022-11-10T12:01:19.220Z,11.86
2022-11-10T12:04:07.746Z,11.86
2022-11-10T12:07:18.827Z,11.87
2022-11-10T12:09:55.261Z,11.88
2022-11-10T12:12:51.333Z,11.89
2022-11-10T12:15:41.826Z,11.90
2022-11-10T12:18:36.445Z,11.90
2022-11-10T12:21:24.770Z,11.92
2022-11-10T12:24:10.108Z,11.91
2022-11-10T12:26:53.620Z,11.91
2022-11-10T12:29:48.714Z,11.94
2022-11-10T12:32:22.428Z,11.94
2022-11-10T12:35:06.722Z,11.94
2022-11-10T12:37:54.404Z,11.95
2022-11-10T12:40:25.017Z,11.95
2022-11-10T12:43:00.110Z,11.97
2022-11-10T12:45:32.668Z,11.94
2022-11-10T12:48:00.616Z,11.94
2022-11-10T12:50:51.080Z,11.93
2022-11-10T12:53:26.370Z,11.94
2022-11-10T12:56:20.879Z,11.95
2022-11-10T12:58:48.001Z,11.97
2022-11-10T13:01:19.003Z,11.96
2022-11-10T13:03:59.068Z,11.97
2022-11-10T13:06:37.522Z,11.98
2022-11-10T13:09:04.683Z,12.01
2022-11-10T13:11:34.503Z,12.01
2022-11-10T13:14:19.370Z,12.02
2022-11-10T13:16:50.090Z,12.05
2022-11-10T13:19:25.878Z,12.04
2022-11-10T13:21:52.578Z,12.05
2022-11-10T13:24:25.559Z,12.06
2022-11-10T13:26:55.384Z,12.06
2022-11-10T13:29:45.687Z,12.07
2022-11-10T13:32:15.145Z,12.08
2022-11-10T13:34:43.782Z,12.08
2022-11-10T13:37:35.541Z,12.09
2022-11-10T13:40:17.540Z,12.09
2022-11-10T13:43:04.706Z,12.10
2022-11-10T13:45:40.035Z,12.12
2022-11-10T13:48:12.707Z,12.11
2022-11-10T13:51:16.394Z,12.12
2022-11-10T13:54:02.001Z,12.11
2022-11-10T13:56:31.847Z,12.06
2022-11-10T13:58:59.354Z,12.13
2022-11-10T14:01:30.317Z,12.14
2022-11-10T14:04:02.440Z,12.17
2022-11-10T14:06:43.701Z,12.17
2022-11-10T14:09:29.251Z,12.18
2022-11-10T14:12:28.107Z,12.19
2022-11-10T14:15:00.481Z,12.18
2022-11-10T14:17:32.521Z,12.20
2022-11-10T14:20:00.274Z,12.19
2022-11-10T14:22:43.192Z,12.20
2022-11-10T14:25:29.575Z,12.21
2022-11-10T14:27:58.411Z,12.20
2022-11-10T14:30:33.675Z,12.22
2022-11-10T14:33:09.241Z,12.20
2022-11-10T14:35:49.001Z,12.20
2022-11-10T14:38:25.186Z,12.20
2022-11-10T14:41:00.658Z,12.21
2022-11-10T14:43:33.088Z,12.18
2022-11-10T14:46:01.054Z,12.17
2022-11-10T14:48:38.719Z,12.18
2022-11-10T14:51:19.161Z,12.16
2022-11-10T14:53:49.175Z,12.16
2022-11-10T14:56:19.759Z,12.14
2022-11-10T14:58:48.833Z,12.12
2022-11-10T15:01:35.314Z,12.11
2022-11-10T15:04:05.859Z,12.11
2022-11-10T15:06:33.639Z,12.10
2022-11-10T15:09:12.740Z,12.10
2022-11-10T15:11:49.965Z,12.07
2022-11-10T15:14:38.368Z,12.06
2022-11-10T15:17:06.900Z,12.02
2022-11-10T15:19:40.964Z,12.01
2022-11-10T15:22:18.696Z,12.01
2022-11-10T15:24:48.114Z,11.95
2022-11-10T15:27:28.129Z,11.93
2022-11-10T15:29:57.537Z,11.87
2022-11-10T15:32:36.661Z,11.84
2022-11-10T15:35:29.904Z,11.82
2022-11-10T15:38:03.886Z,11.78
2022-11-10T15:40:48.645Z,11.74
2022-11-10T15:43:16.925Z,11.69
2022-11-10T15:45:47.955Z,11.60
2022-11-10T15:48:17.004Z,11.42
2022-11-10T15:50:46.960Z,11.52
2022-11-10T15:53:17.423Z,11.52
2022-11-10T15:55:45.123Z,11.47
2022-11-10T15:58:17.355Z,11.45
2022-11-10T16:00:44.551Z,11.42
2022-11-10T16:03:18.579Z,11.38
2022-11-10T16:05:45.933Z,11.32
2022-11-10T16:08:18.901Z,11.28
2022-11-10T16:10:50.056Z,11.24
2022-11-10T16:13:24.425Z,11.21
2022-11-10T16:15:51.869Z,11.18
2022-11-10T16:18:22.092Z,11.12
2022-11-10T16:20:50.772Z,11.12
2022-11-10T16:23:18.778Z,11.06
2022-11-10T16:25:48.475Z,11.01
2022-11-10T16:28:19.759Z,11.00
2022-11-10T16:30:47.012Z,10.96
2022-11-10T16:33:18.363Z,10.93
2022-11-10T16:35:48.199Z,10.89
2022-11-10T16:38:29.747Z,10.89
2022-11-10T16:41:04.421Z,10.85
2022-11-10T16:43:32.071Z,10.81
2022-11-10T16:46:02.349Z,10.79
2022-11-10T16:48:32.606Z,10.74
2022-11-10T16:51:01.255Z,10.65
2022-11-10T16:53:31.035Z,10.61
2022-11-10T16:55:58.959Z,10.58
2022-11-10T16:58:27.477Z,10.52
2022-11-10T17:00:58.278Z,10.50
2022-11-10T17:03:43.296Z,10.43
2022-11-10T17:06:13.928Z,10.37
2022-11-10T17:08:41.884Z,10.34
2022-11-10T17:11:09.727Z,10.30
2022-11-10T17:13:36.525Z,10.26
2022-11-10T17:16:14.854Z,10.22
2022-11-10T17:18:41.670Z,10.17
2022-11-10T17:21:08.692Z,10.13
2022-11-10T17:23:36.256Z,10.14
2022-11-10T17:26:03.767Z,10.10
2022-11-10T17:28:30.566Z,10.03
2022-11-10T17:30:58.403Z,10.01
2022-11-10T17:33:25.650Z,10.01
2022-11-10T17:35:53.304Z,9.97
2022-11-10T17:38:26.683Z,9.96
2022-11-10T17:40:53.910Z,9.93
2022-11-10T17:43:22.351Z,9.88
2022-11-10T17:45:49.996Z,9.84
2022-11-10T17:48:16.991Z,9.84
2022-11-10T17:50:44.923Z,9.80
2022-11-10T17:53:30.884Z,9.77
2022-11-10T17:55:57.752Z,9.74
2022-11-10T17:58:24.675Z,9.71
2022-11-10T18:00:51.482Z,9.72
2022-11-10T18:03:22.679Z,9.65
2022-11-10T18:05:50.024Z,9.62
2022-11-10T18:08:17.720Z,9.59
2022-11-10T18:10:50.242Z,9.52
2022-11-10T18:13:18.930Z,9.48
2022-11-10T18:15:47.821Z,9.45
2022-11-10T18:18:17.124Z,9.40
2022-11-10T18:20:45.816Z,9.36
2022-11-10T18:23:13.120Z,9.33
2022-11-10T18:25:42.070Z,9.32
2022-11-10T18:28:12.426Z,9.30
2022-11-10T18:30:41.174Z,9.29
2022-11-10T18:33:08.498Z,9.25
2022-11-10T18:35:38.782Z,9.22
2022-11-10T18:38:07.896Z,9.20
2022-11-10T18:40:35.237Z,9.14
2022-11-10T18:43:07.222Z,9.08
2022-11-10T18:45:37.316Z,9.08
2022-11-10T18:48:05.223Z,9.06
2022-11-10T18:50:32.330Z,9.03
2022-11-10T18:53:00.224Z,9.06
2022-11-10T18:55:27.398Z,9.02
2022-11-10T18:57:54.225Z,9.01
2022-11-10T19:00:21.672Z,9.01
2022-11-10T19:02:48.871Z,8.98
2022-11-10T19:05:16.250Z,8.97
2022-11-10T19:07:43.271Z,8.93
2022-11-10T19:10:10.554Z,8.91
2022-11-10T19:12:41.523Z,8.85
2022-11-10T19:15:12.638Z,8.87
2022-11-10T19:17:40.952Z,8.85
2022-11-10T19:20:10.190Z,8.81
2022-11-10T19:22:37.176Z,8.82
2022-11-10T19:25:08.923Z,8.82
2022-11-10T19:27:39.502Z,8.77
2022-11-10T19:30:07.235Z,8.74
2022-11-10T19:32:34.599Z,8.74
2022-11-10T19:35:03.760Z,8.70
2022-11-10T19:37:35.646Z,8.65
2022-11-10T19:40:03.141Z,8.58
2022-11-10T19:42:30.350Z,8.63
2022-11-10T19:44:58.583Z,8.64
2022-11-10T19:47:25.760Z,8.61
2022-11-10T19:49:53.994Z,8.60
2022-11-10T19:52:21.303Z,8.55
2022-11-10T19:54:48.101Z,8.45
2022-11-10T19:57:15.173Z,8.48
2022-11-10T19:59:42.157Z,8.50
2022-11-10T20:02:13.255Z,8.45
2022-11-10T20:05:00.844Z,8.43
2022-11-10T20:07:46.615Z,8.42
2022-11-10T20:10:16.415Z,8.41
2022-11-10T20:12:43.237Z,8.39
2022-11-10T20:15:12.119Z,8.39
2022-11-10T20:17:39.366Z,8.36
2022-11-10T20:20:07.603Z,8.32
2022-11-10T20:22:34.921Z,8.30
2022-11-10T20:25:02.382Z,8.27
2022-11-10T20:27:30.452Z,8.26
2022-11-10T20:29:57.751Z,8.23
2022-11-10T20:32:26.276Z,8.21
2022-11-10T20:34:53.597Z,8.20
2022-11-10T20:37:20.675Z,8.19
2022-11-10T20:39:47.658Z,8.15
2022-11-10T20:42:15.186Z,8.11
2022-11-10T20:44:42.792Z,8.08
2022-11-10T20:47:09.741Z,8.07
2022-11-10T20:49:36.917Z,8.00
2022-11-10T20:52:03.796Z,8.02
2022-11-10T20:54:30.642Z,8.00
2022-11-10T20:56:57.796Z,7.98
2022-11-10T20:59:24.763Z,7.98
2022-11-10T21:01:52.036Z,7.95
2022-11-10T21:04:19.062Z,7.91
2022-11-10T21:06:45.885Z,7.87
2022-11-10T21:09:13.164Z,7.85
2022-11-10T21:11:58.717Z,7.84
2022-11-10T21:14:25.532Z,7.79
2022-11-10T21:16:52.329Z,7.79
2022-11-10T21:19:19.186Z,7.78
2022-11-10T21:21:46.058Z,7.77
2022-11-10T21:24:12.840Z,7.78
2022-11-10T21:26:41.214Z,7.73
2022-11-10T21:29:08.658Z,7.72
2022-11-10T21:31:35.775Z,7.70
2022-11-10T21:34:02.765Z,7.66
2022-11-10T21:36:29.936Z,7.65
2022-11-10T21:38:57.556Z,7.65
2022-11-10T21:41:25.007Z,7.65
2022-11-10T21:43:51.786Z,7.56
2022-11-10T21:46:18.931Z,7.55
2022-11-10T21:48:45.845Z,7.56
2022-11-10T21:51:14.362Z,7.54
2022-11-10T21:53:44.482Z,7.52
2022-11-10T21:56:12.273Z,7.47
2022-11-10T21:58:40.062Z,7.50
2022-11-10T22:01:15.848Z,7.46
2022-11-10T22:03:42.749Z,7.44
2022-11-10T22:06:15.293Z,7.41
2022-11-10T22:08:44.709Z,7.38
2022-11-10T22:11:35.833Z,7.36
2022-11-10T22:14:21.179Z,7.36
2022-11-10T22:17:08.626Z,7.35
2022-11-10T22:19:37.164Z,7.36
2022-11-10T22:22:04.521Z,7.33
2022-11-10T22:24:31.930Z,7.28
2022-11-10T22:27:00.311Z,7.25
2022-11-10T22:29:31.804Z,7.24
2022-11-10T22:32:00.236Z,7.21
2022-11-10T22:34:29.466Z,7.23
2022-11-10T22:36:56.414Z,7.18
2022-11-10T22:39:23.354Z,7.16
2022-11-10T22:42:08.750Z,7.16
2022-11-10T22:44:36.577Z,7.13
2022-11-10T22:47:03.469Z,7.14
2022-11-10T22:49:30.393Z,7.12
2022-11-10T22:51:57.348Z,7.13
2022-11-10T22:54:24.512Z,7.11
2022-11-10T22:56:51.688Z,7.10
2022-11-10T22:59:19.500Z,7.04
2022-11-10T23:01:46.617Z,7.05
2022-11-10T23:04:15.982Z,7.02
2022-11-10T23:06:43.602Z,6.98
2022-11-10T23:09:10.478Z,6.96
2022-11-10T23:11:37.391Z,6.97
2022-11-10T23:14:04.295Z,6.92
2022-11-10T23:16:34.522Z,6.90
2022-11-10T23:19:01.768Z,6.82
2022-11-10T23:21:30.495Z,6.84
2022-11-10T23:23:57.676Z,6.82
2022-11-10T23:26:27.257Z,6.82
2022-11-10T23:28:54.442Z,6.82
2022-11-10T23:31:26.094Z,6.81
2022-11-10T23:33:55.501Z,6.80
2022-11-10T23:36:24.644Z,6.78
2022-11-10T23:38:51.602Z,6.76
2022-11-10T23:41:21.011Z,6.79
2022-11-10T23:43:47.938Z,6.76
2022-11-10T23:46:15.178Z,6.76
2022-11-10T23:48:42.233Z,6.75
2022-11-10T23:51:12.122Z,6.75
2022-11-10T23:53:39.737Z,6.72
2022-11-10T23:56:10.755Z,6.72
2022-11-10T23:58:38.133Z,6.73
